CFG4PM EDDN-EDDV
Flight info
| Callsign | CFG4PM |
|---|---|
| Flight time | 0h 39m |
| Altitude | 26000 |
| Route | ERETO1G/28 ERETO DCT LONLI M726 LASTO M852 BIRKA/N0433F240 T803 GITEX GITEX1X |
| Aircraft | A320/M-SDE3FGHIRWY/LB1 |
Departure
| Time | 2026-05-04 20:43 |
|---|---|
| Airport | Nuremberg Airport (EDDN) |
Arrival
| Time | 2026-05-04 21:23 |
|---|---|
| Airport | Hannover Airport (EDDV) |
| Time | Latitude | Longitude | Altitude | Speed | Heading |
|---|---|---|---|---|---|
| 2026-05-04 20:12 | 49.49515 | 11.07790 | 1028 ft | 0 kts | 188° |
| 2026-05-04 20:21 | 49.49516 | 11.07790 | 1028 ft | 0 kts | 188° |
| 2026-05-04 20:32 | 49.49515 | 11.07790 | 1028 ft | 0 kts | 188° |
| 2026-05-04 20:33 | 49.49516 | 11.07790 | 1028 ft | 0 kts | 188° |
| 2026-05-04 20:34 | 49.49530 | 11.07792 | 1025 ft | 4 kts | 180° |
| 2026-05-04 20:35 | 49.49557 | 11.07787 | 1028 ft | 4 kts | 155° |
| 2026-05-04 20:35 | 49.49578 | 11.07764 | 1028 ft | 4 kts | 126° |
| 2026-05-04 20:35 | 49.49590 | 11.07728 | 1029 ft | 4 kts | 104° |
| 2026-05-04 20:35 | 49.49594 | 11.07698 | 1029 ft | 0 kts | 99° |
| 2026-05-04 20:38 | 49.49590 | 11.07737 | 1028 ft | 8 kts | 99° |
| 2026-05-04 20:38 | 49.49579 | 11.07844 | 1030 ft | 9 kts | 99° |
| 2026-05-04 20:39 | 49.49571 | 11.07920 | 1031 ft | 6 kts | 99° |
| 2026-05-04 20:39 | 49.49566 | 11.07979 | 1031 ft | 5 kts | 97° |
| 2026-05-04 20:39 | 49.49560 | 11.08046 | 1032 ft | 8 kts | 98° |
| 2026-05-04 20:39 | 49.49551 | 11.08142 | 1032 ft | 10 kts | 98° |
| 2026-05-04 20:40 | 49.49538 | 11.08261 | 1034 ft | 12 kts | 100° |
| 2026-05-04 20:40 | 49.49573 | 11.08351 | 1036 ft | 12 kts | 13° |
| 2026-05-04 20:40 | 49.49614 | 11.08449 | 1036 ft | 14 kts | 99° |
| 2026-05-04 20:40 | 49.49601 | 11.08592 | 1040 ft | 14 kts | 97° |
| 2026-05-04 20:41 | 49.49585 | 11.08751 | 1042 ft | 17 kts | 98° |
| 2026-05-04 20:41 | 49.49565 | 11.08952 | 1045 ft | 21 kts | 98° |
| 2026-05-04 20:41 | 49.49541 | 11.09189 | 1049 ft | 22 kts | 99° |
| 2026-05-04 20:41 | 49.49550 | 11.09398 | 1056 ft | 18 kts | 56° |
| 2026-05-04 20:42 | 49.49620 | 11.09542 | 1059 ft | 15 kts | 50° |
| 2026-05-04 20:42 | 49.49697 | 11.09528 | 1060 ft | 13 kts | 297° |
| 2026-05-04 20:42 | 49.49720 | 11.09323 | 1055 ft | 40 kts | 278° |
| 2026-05-04 20:42 | 49.49799 | 11.08511 | 1035 ft | 112 kts | 278° |
| 2026-05-04 20:43 | 49.49947 | 11.07023 | 1032 ft | 166 kts | 280° |
| 2026-05-04 20:43 | 49.50156 | 11.05185 | 1401 ft | 180 kts | 281° |
| 2026-05-04 20:43 | 49.50401 | 11.03264 | 2037 ft | 186 kts | 284° |
| 2026-05-04 20:43 | 49.50695 | 11.01298 | 2695 ft | 191 kts | 286° |
| 2026-05-04 20:44 | 49.50996 | 10.99325 | 3326 ft | 186 kts | 283° |
| 2026-05-04 20:44 | 49.51240 | 10.97409 | 3843 ft | 179 kts | 281° |
| 2026-05-04 20:44 | 49.51469 | 10.95526 | 4199 ft | 184 kts | 281° |
| 2026-05-04 20:44 | 49.51912 | 10.93657 | 4462 ft | 189 kts | 315° |
| 2026-05-04 20:45 | 49.53097 | 10.92721 | 4520 ft | 205 kts | 357° |
| 2026-05-04 20:45 | 49.54556 | 10.92668 | 4821 ft | 214 kts | 3° |
| 2026-05-04 20:45 | 49.56058 | 10.92751 | 5211 ft | 218 kts | 3° |
| 2026-05-04 20:45 | 49.57618 | 10.92848 | 5484 ft | 231 kts | 2° |
| 2026-05-04 20:46 | 49.59260 | 10.92956 | 5854 ft | 240 kts | 2° |
| 2026-05-04 20:46 | 49.60952 | 10.93072 | 6273 ft | 247 kts | 2° |
| 2026-05-04 20:46 | 49.62692 | 10.93197 | 6695 ft | 254 kts | 2° |
| 2026-05-04 20:46 | 49.64482 | 10.93330 | 7158 ft | 260 kts | 2° |
| 2026-05-04 20:47 | 49.66306 | 10.93471 | 7667 ft | 265 kts | 1° |
| 2026-05-04 20:47 | 49.68166 | 10.93618 | 8219 ft | 269 kts | 1° |
| 2026-05-04 20:47 | 49.70048 | 10.93772 | 8787 ft | 273 kts | 1° |
| 2026-05-04 20:47 | 49.71952 | 10.93932 | 9400 ft | 275 kts | 1° |
| 2026-05-04 20:48 | 49.73865 | 10.94098 | 9985 ft | 277 kts | 1° |
| 2026-05-04 20:48 | 49.75794 | 10.94269 | 10538 ft | 278 kts | 1° |
| 2026-05-04 20:48 | 49.77723 | 10.94446 | 11097 ft | 278 kts | 1° |
| 2026-05-04 20:48 | 49.79656 | 10.94629 | 11660 ft | 278 kts | 1° |
| 2026-05-04 20:49 | 49.81586 | 10.94816 | 12218 ft | 278 kts | 1° |
| 2026-05-04 20:49 | 49.83513 | 10.95009 | 12792 ft | 277 kts | 1° |
| 2026-05-04 20:49 | 49.85404 | 10.95205 | 13374 ft | 274 kts | 2° |
| 2026-05-04 20:49 | 49.87316 | 10.95409 | 13934 ft | 271 kts | 2° |
| 2026-05-04 20:50 | 49.89181 | 10.95615 | 14428 ft | 267 kts | 2° |
| 2026-05-04 20:50 | 49.91024 | 10.95826 | 14923 ft | 263 kts | 1° |
| 2026-05-04 20:50 | 49.92835 | 10.96041 | 15403 ft | 259 kts | 1° |
| 2026-05-04 20:50 | 49.94593 | 10.96259 | 15850 ft | 254 kts | 2° |
| 2026-05-04 20:51 | 49.96341 | 10.96482 | 16271 ft | 250 kts | 2° |
| 2026-05-04 20:51 | 49.98056 | 10.96708 | 16660 ft | 245 kts | 2° |
| 2026-05-04 20:51 | 49.99734 | 10.96937 | 17003 ft | 237 kts | 2° |
| 2026-05-04 20:51 | 50.01358 | 10.97166 | 17258 ft | 232 kts | 2° |
| 2026-05-04 20:52 | 50.02890 | 10.97395 | 17851 ft | 206 kts | 2° |
| 2026-05-04 20:52 | 50.04279 | 10.97586 | 18038 ft | 206 kts | 359° |
| 2026-05-04 20:52 | 50.05844 | 10.97506 | 17294 ft | 247 kts | 345° |
| 2026-05-04 20:52 | 50.07538 | 10.96737 | 16902 ft | 257 kts | 336° |
| 2026-05-04 20:53 | 50.09272 | 10.95781 | 16897 ft | 273 kts | 336° |
| 2026-05-04 20:53 | 50.11147 | 10.94898 | 16933 ft | 291 kts | 349° |
| 2026-05-04 20:53 | 50.13219 | 10.94525 | 16961 ft | 309 kts | 351° |
| 2026-05-04 20:53 | 50.15426 | 10.94151 | 16958 ft | 328 kts | 351° |
| 2026-05-04 20:54 | 50.17759 | 10.93757 | 16955 ft | 347 kts | 351° |
| 2026-05-04 20:54 | 50.20221 | 10.93342 | 16956 ft | 365 kts | 351° |
| 2026-05-04 20:54 | 50.22807 | 10.92916 | 16956 ft | 382 kts | 352° |
| 2026-05-04 20:54 | 50.25511 | 10.92473 | 16956 ft | 399 kts | 352° |
| 2026-05-04 20:55 | 50.28324 | 10.92006 | 16957 ft | 414 kts | 352° |
| 2026-05-04 20:55 | 50.31242 | 10.91519 | 16961 ft | 429 kts | 352° |
| 2026-05-04 20:55 | 50.34256 | 10.91017 | 16961 ft | 441 kts | 352° |
| 2026-05-04 20:55 | 50.37327 | 10.90504 | 16971 ft | 445 kts | 352° |
| 2026-05-04 20:56 | 50.40405 | 10.89991 | 16961 ft | 445 kts | 352° |
| 2026-05-04 20:56 | 50.43482 | 10.89475 | 16952 ft | 443 kts | 352° |
| 2026-05-04 20:56 | 50.46537 | 10.88966 | 16965 ft | 440 kts | 352° |
| 2026-05-04 20:56 | 50.49566 | 10.88463 | 16965 ft | 437 kts | 352° |
| 2026-05-04 20:57 | 50.52581 | 10.87957 | 16965 ft | 434 kts | 351° |
| 2026-05-04 20:57 | 50.55578 | 10.87450 | 16967 ft | 432 kts | 351° |
| 2026-05-04 20:57 | 50.58563 | 10.86944 | 16967 ft | 430 kts | 351° |
| 2026-05-04 20:57 | 50.61536 | 10.86440 | 16967 ft | 429 kts | 351° |
| 2026-05-04 20:58 | 50.64500 | 10.85937 | 16972 ft | 428 kts | 351° |
| 2026-05-04 20:58 | 50.67460 | 10.85435 | 16974 ft | 427 kts | 351° |
| 2026-05-04 20:58 | 50.70413 | 10.84933 | 16978 ft | 426 kts | 351° |
| 2026-05-04 20:58 | 50.73362 | 10.84427 | 16981 ft | 426 kts | 351° |
| 2026-05-04 20:59 | 50.76305 | 10.83921 | 16983 ft | 425 kts | 351° |
| 2026-05-04 20:59 | 50.79244 | 10.83417 | 16989 ft | 425 kts | 351° |
| 2026-05-04 20:59 | 50.82179 | 10.82918 | 16991 ft | 425 kts | 352° |
| 2026-05-04 20:59 | 50.85118 | 10.82419 | 16996 ft | 424 kts | 351° |
| 2026-05-04 21:00 | 50.88054 | 10.81922 | 16994 ft | 424 kts | 351° |
| 2026-05-04 21:00 | 50.90984 | 10.81425 | 17000 ft | 423 kts | 351° |
| 2026-05-04 21:00 | 50.93913 | 10.80924 | 17001 ft | 423 kts | 351° |
| 2026-05-04 21:00 | 50.96838 | 10.80419 | 17001 ft | 423 kts | 351° |
| 2026-05-04 21:01 | 50.99762 | 10.79913 | 17004 ft | 423 kts | 351° |
| 2026-05-04 21:01 | 51.02683 | 10.79405 | 16999 ft | 423 kts | 351° |
| 2026-05-04 21:01 | 51.05569 | 10.78901 | 16997 ft | 423 kts | 351° |
| 2026-05-04 21:01 | 51.08494 | 10.78392 | 16911 ft | 425 kts | 352° |
| 2026-05-04 21:02 | 51.11460 | 10.77877 | 16526 ft | 433 kts | 352° |
| 2026-05-04 21:02 | 51.14474 | 10.77356 | 16142 ft | 437 kts | 352° |
| 2026-05-04 21:02 | 51.17502 | 10.76835 | 15763 ft | 437 kts | 352° |
| 2026-05-04 21:02 | 51.20517 | 10.76316 | 15391 ft | 435 kts | 352° |
| 2026-05-04 21:03 | 51.23517 | 10.75795 | 15013 ft | 433 kts | 352° |
| 2026-05-04 21:03 | 51.26505 | 10.75275 | 14649 ft | 431 kts | 352° |
| 2026-05-04 21:03 | 51.29479 | 10.74758 | 14284 ft | 429 kts | 352° |
| 2026-05-04 21:03 | 51.32436 | 10.74242 | 13937 ft | 427 kts | 352° |
| 2026-05-04 21:04 | 51.35382 | 10.73725 | 13551 ft | 425 kts | 352° |
| 2026-05-04 21:04 | 51.38316 | 10.73210 | 13156 ft | 423 kts | 352° |
| 2026-05-04 21:04 | 51.41231 | 10.72698 | 12767 ft | 421 kts | 352° |
| 2026-05-04 21:04 | 51.44132 | 10.72188 | 12377 ft | 418 kts | 352° |
| 2026-05-04 21:05 | 51.47020 | 10.71677 | 11991 ft | 416 kts | 352° |
| 2026-05-04 21:05 | 51.49892 | 10.71168 | 11612 ft | 414 kts | 352° |
| 2026-05-04 21:05 | 51.52746 | 10.70661 | 11240 ft | 412 kts | 352° |
| 2026-05-04 21:05 | 51.55557 | 10.70165 | 10863 ft | 396 kts | 352° |
| 2026-05-04 21:06 | 51.58218 | 10.69705 | 10505 ft | 374 kts | 352° |
| 2026-05-04 21:06 | 51.60736 | 10.69271 | 10150 ft | 354 kts | 352° |
| 2026-05-04 21:06 | 51.63127 | 10.68855 | 9777 ft | 338 kts | 352° |
| 2026-05-04 21:06 | 51.65410 | 10.68455 | 9438 ft | 321 kts | 351° |
| 2026-05-04 21:07 | 51.67575 | 10.68073 | 9177 ft | 305 kts | 351° |
| 2026-05-04 21:07 | 51.69664 | 10.67700 | 8914 ft | 300 kts | 351° |
| 2026-05-04 21:07 | 51.71733 | 10.67325 | 8655 ft | 298 kts | 351° |
| 2026-05-04 21:07 | 51.73785 | 10.66952 | 8397 ft | 296 kts | 351° |
| 2026-05-04 21:08 | 51.75828 | 10.66581 | 8137 ft | 295 kts | 351° |
| 2026-05-04 21:08 | 51.77830 | 10.66188 | 7892 ft | 292 kts | 348° |
| 2026-05-04 21:08 | 51.79797 | 10.65519 | 7632 ft | 280 kts | 341° |
| 2026-05-04 21:08 | 51.81614 | 10.64586 | 7396 ft | 276 kts | 336° |
| 2026-05-04 21:09 | 51.83386 | 10.63421 | 7148 ft | 274 kts | 335° |
| 2026-05-04 21:09 | 51.85147 | 10.62254 | 7000 ft | 274 kts | 335° |
| 2026-05-04 21:09 | 51.86906 | 10.61092 | 6978 ft | 273 kts | 335° |
| 2026-05-04 21:09 | 51.88669 | 10.59929 | 7021 ft | 276 kts | 335° |
| 2026-05-04 21:10 | 51.90462 | 10.58740 | 7338 ft | 283 kts | 335° |
| 2026-05-04 21:10 | 51.92296 | 10.57519 | 7704 ft | 287 kts | 335° |
| 2026-05-04 21:10 | 51.94151 | 10.56280 | 8115 ft | 290 kts | 334° |
| 2026-05-04 21:10 | 51.96033 | 10.54995 | 8345 ft | 299 kts | 331° |
| 2026-05-04 21:11 | 51.97883 | 10.53341 | 8483 ft | 309 kts | 323° |
| 2026-05-04 21:11 | 51.99632 | 10.51240 | 8631 ft | 316 kts | 315° |
| 2026-05-04 21:11 | 52.01154 | 10.48837 | 9283 ft | 295 kts | 308° |
| 2026-05-04 21:11 | 52.02417 | 10.46320 | 8920 ft | 283 kts | 301° |
| 2026-05-04 21:12 | 52.03475 | 10.43664 | 8325 ft | 278 kts | 299° |
| 2026-05-04 21:12 | 52.04511 | 10.41028 | 7714 ft | 276 kts | 299° |
| 2026-05-04 21:12 | 52.05541 | 10.38416 | 7155 ft | 272 kts | 300° |
| 2026-05-04 21:12 | 52.06559 | 10.35830 | 6993 ft | 273 kts | 299° |
| 2026-05-04 21:13 | 52.07583 | 10.33227 | 6983 ft | 276 kts | 300° |
| 2026-05-04 21:13 | 52.08620 | 10.30589 | 6977 ft | 277 kts | 300° |
| 2026-05-04 21:13 | 52.09659 | 10.27948 | 6978 ft | 277 kts | 300° |
| 2026-05-04 21:13 | 52.10778 | 10.25398 | 6977 ft | 279 kts | 313° |
| 2026-05-04 21:14 | 52.12295 | 10.23415 | 6629 ft | 279 kts | 323° |
| 2026-05-04 21:14 | 52.13881 | 10.21608 | 6258 ft | 277 kts | 323° |
| 2026-05-04 21:14 | 52.15467 | 10.19831 | 5874 ft | 276 kts | 324° |
| 2026-05-04 21:14 | 52.17042 | 10.18072 | 5488 ft | 273 kts | 323° |
| 2026-05-04 21:15 | 52.18602 | 10.16319 | 5118 ft | 271 kts | 323° |
| 2026-05-04 21:15 | 52.20147 | 10.14578 | 4981 ft | 270 kts | 323° |
| 2026-05-04 21:15 | 52.21695 | 10.12833 | 4862 ft | 270 kts | 323° |
| 2026-05-04 21:15 | 52.23237 | 10.11090 | 4728 ft | 269 kts | 323° |
| 2026-05-04 21:16 | 52.24772 | 10.09349 | 4603 ft | 269 kts | 323° |
| 2026-05-04 21:16 | 52.26302 | 10.07606 | 4478 ft | 268 kts | 323° |
| 2026-05-04 21:16 | 52.27821 | 10.05874 | 4344 ft | 261 kts | 323° |
| 2026-05-04 21:16 | 52.29247 | 10.04249 | 4213 ft | 240 kts | 323° |
| 2026-05-04 21:17 | 52.30576 | 10.02734 | 4102 ft | 233 kts | 323° |
| 2026-05-04 21:17 | 52.31859 | 10.01275 | 3995 ft | 216 kts | 323° |
| 2026-05-04 21:17 | 52.33046 | 9.99926 | 4039 ft | 205 kts | 323° |
| 2026-05-04 21:17 | 52.34205 | 9.98606 | 3993 ft | 198 kts | 323° |
| 2026-05-04 21:18 | 52.35323 | 9.97332 | 3930 ft | 196 kts | 324° |
| 2026-05-04 21:18 | 52.36439 | 9.96059 | 3575 ft | 194 kts | 323° |
| 2026-05-04 21:18 | 52.37542 | 9.94798 | 3206 ft | 193 kts | 324° |
| 2026-05-04 21:18 | 52.38640 | 9.93538 | 2822 ft | 192 kts | 324° |
| 2026-05-04 21:19 | 52.39722 | 9.92294 | 2445 ft | 187 kts | 324° |
| 2026-05-04 21:19 | 52.40746 | 9.91117 | 2291 ft | 175 kts | 324° |
| 2026-05-04 21:19 | 52.41723 | 9.89993 | 2118 ft | 168 kts | 324° |
| 2026-05-04 21:19 | 52.42655 | 9.88926 | 2033 ft | 161 kts | 325° |
| 2026-05-04 21:20 | 52.43562 | 9.87885 | 2007 ft | 159 kts | 325° |
| 2026-05-04 21:20 | 52.44155 | 9.87180 | 1999 ft | 159 kts | 319° |
| 2026-05-04 21:20 | 52.44813 | 9.85750 | 1903 ft | 158 kts | 292° |
| 2026-05-04 21:20 | 52.45032 | 9.84001 | 1753 ft | 157 kts | 272° |
| 2026-05-04 21:21 | 52.45082 | 9.82215 | 1549 ft | 156 kts | 272° |
| 2026-05-04 21:21 | 52.45127 | 9.80439 | 1340 ft | 156 kts | 272° |
| 2026-05-04 21:21 | 52.45184 | 9.78668 | 1132 ft | 155 kts | 273° |
| 2026-05-04 21:21 | 52.45251 | 9.76910 | 921 ft | 154 kts | 272° |
| 2026-05-04 21:22 | 52.45296 | 9.75161 | 722 ft | 153 kts | 270° |
| 2026-05-04 21:22 | 52.45329 | 9.73430 | 559 ft | 153 kts | 271° |
| 2026-05-04 21:22 | 52.45387 | 9.71712 | 323 ft | 151 kts | 271° |
| 2026-05-04 21:22 | 52.45433 | 9.70024 | 182 ft | 136 kts | 272° |
| 2026-05-04 21:23 | 52.45463 | 9.68945 | 184 ft | 51 kts | 271° |
| 2026-05-04 21:23 | 52.45469 | 9.68728 | 182 ft | 11 kts | 274° |
| 2026-05-04 21:23 | 52.45474 | 9.68548 | 182 ft | 20 kts | 271° |
| 2026-05-04 21:23 | 52.45484 | 9.68307 | 181 ft | 17 kts | 287° |
| 2026-05-04 21:24 | 52.45550 | 9.68253 | 180 ft | 11 kts | 359° |
| 2026-05-04 21:24 | 52.45588 | 9.68254 | 179 ft | 1 kts | 3° |
| 2026-05-04 21:24 | 52.45595 | 9.68254 | 179 ft | 1 kts | 2° |
| 2026-05-04 21:24 | 52.45618 | 9.68261 | 179 ft | 7 kts | 28° |
| 2026-05-04 21:25 | 52.45642 | 9.68336 | 178 ft | 7 kts | 83° |
| 2026-05-04 21:25 | 52.45642 | 9.68402 | 178 ft | 5 kts | 91° |
| 2026-05-04 21:25 | 52.45641 | 9.68447 | 178 ft | 3 kts | 91° |
| 2026-05-04 21:25 | 52.45639 | 9.68493 | 159 ft | 7 kts | 94° |
| 2026-05-04 21:26 | 52.45634 | 9.68622 | 178 ft | 15 kts | 92° |
| 2026-05-04 21:26 | 52.45629 | 9.68818 | 178 ft | 18 kts | 94° |
| 2026-05-04 21:26 | 52.45622 | 9.69025 | 178 ft | 19 kts | 93° |
| 2026-05-04 21:26 | 52.45664 | 9.69147 | 178 ft | 11 kts | 8° |
| 2026-05-04 21:27 | 52.45731 | 9.69159 | 178 ft | 9 kts | 21° |
| 2026-05-04 21:27 | 52.45761 | 9.69223 | 178 ft | 6 kts | 82° |
| 2026-05-04 21:27 | 52.45760 | 9.69284 | 178 ft | 4 kts | 94° |
| 2026-05-04 21:27 | 52.45759 | 9.69323 | 178 ft | 3 kts | 94° |
| 2026-05-04 21:28 | 52.45758 | 9.69349 | 178 ft | 4 kts | 92° |
| 2026-05-04 21:28 | 52.45739 | 9.69451 | 178 ft | 12 kts | 131° |
| 2026-05-04 21:28 | 52.45679 | 9.69546 | 178 ft | 13 kts | 108° |
| 2026-05-04 21:28 | 52.45675 | 9.69686 | 178 ft | 10 kts | 72° |
| 2026-05-04 21:29 | 52.45730 | 9.69704 | 178 ft | 7 kts | 355° |
| 2026-05-04 21:29 | 52.45749 | 9.69701 | 178 ft | 0 kts | 354° |